createdAt,value
2018-07-29T00:00:48.736Z,21.50
2018-07-29T00:03:17.024Z,21.50
2018-07-29T00:05:45.332Z,21.50
2018-07-29T00:08:13.674Z,21.50
2018-07-29T00:10:41.949Z,21.50
2018-07-29T00:13:10.533Z,21.60
2018-07-29T00:15:38.864Z,21.60
2018-07-29T00:18:07.217Z,21.60
2018-07-29T00:20:35.486Z,21.60
2018-07-29T00:23:03.775Z,21.60
2018-07-29T00:25:32.040Z,21.50
2018-07-29T00:28:00.329Z,21.50
2018-07-29T00:30:28.593Z,21.50
2018-07-29T00:32:56.905Z,21.40
2018-07-29T00:35:25.173Z,21.40
2018-07-29T00:37:53.466Z,21.30
2018-07-29T00:40:21.749Z,21.30
2018-07-29T00:42:50.037Z,21.30
2018-07-29T00:45:18.335Z,21.20
2018-07-29T00:47:46.657Z,21.20
2018-07-29T00:50:14.970Z,21.20
2018-07-29T00:52:44.205Z,21.20
2018-07-29T00:55:12.469Z,21.20
2018-07-29T00:57:40.721Z,21.20
2018-07-29T01:00:10.240Z,21.20
2018-07-29T01:02:38.512Z,21.20
2018-07-29T01:05:07.276Z,21.20
2018-07-29T01:07:35.659Z,21.20
2018-07-29T01:10:04.538Z,21.20
2018-07-29T01:12:32.825Z,21.10
2018-07-29T01:15:01.123Z,21.10
2018-07-29T01:17:29.528Z,21.10
2018-07-29T01:19:57.851Z,21.00
2018-07-29T01:22:26.090Z,21.00
2018-07-29T01:24:54.352Z,20.90
2018-07-29T01:27:22.612Z,20.80
2018-07-29T01:29:50.896Z,20.80
2018-07-29T01:32:19.218Z,20.70
2018-07-29T01:34:47.488Z,20.60
2018-07-29T01:37:15.761Z,20.60
2018-07-29T01:39:44.012Z,20.60
2018-07-29T01:42:12.276Z,20.50
2018-07-29T01:44:40.590Z,20.50
2018-07-29T01:47:09.265Z,20.50
2018-07-29T01:49:37.604Z,20.40
2018-07-29T01:52:06.038Z,20.40
2018-07-29T01:54:34.338Z,20.40
2018-07-29T01:57:02.598Z,20.30
2018-07-29T01:59:30.856Z,20.30
2018-07-29T02:01:59.125Z,20.30
2018-07-29T02:04:27.598Z,20.20
2018-07-29T02:06:55.868Z,20.20
2018-07-29T02:09:24.140Z,20.10
2018-07-29T02:11:52.400Z,20.00
2018-07-29T02:14:20.676Z,19.90
2018-07-29T02:16:48.929Z,19.90
2018-07-29T02:19:17.189Z,19.90
2018-07-29T02:21:45.490Z,19.80
2018-07-29T02:24:13.777Z,19.80
2018-07-29T02:26:42.060Z,19.80
2018-07-29T02:29:10.322Z,19.80
2018-07-29T02:31:38.627Z,19.90
2018-07-29T02:34:06.912Z,19.90
2018-07-29T02:36:35.225Z,19.90
2018-07-29T02:39:03.898Z,20.00
2018-07-29T02:41:32.169Z,20.00
2018-07-29T02:44:00.433Z,19.90
2018-07-29T02:46:28.685Z,20.00
2018-07-29T02:48:56.945Z,20.00
2018-07-29T02:51:25.283Z,20.00
2018-07-29T02:53:53.548Z,20.00
2018-07-29T02:56:21.813Z,20.00
2018-07-29T02:58:50.085Z,20.00
2018-07-29T03:01:18.341Z,20.00
2018-07-29T03:03:46.626Z,20.00
2018-07-29T03:06:14.889Z,20.00
2018-07-29T03:08:43.144Z,19.90
2018-07-29T03:11:11.412Z,19.90
2018-07-29T03:13:39.694Z,19.90
2018-07-29T03:16:07.975Z,19.90
2018-07-29T03:18:36.242Z,19.90
2018-07-29T03:21:04.593Z,19.90
2018-07-29T03:23:32.848Z,19.90
2018-07-29T03:26:01.113Z,19.90
2018-07-29T03:28:29.374Z,19.90
2018-07-29T03:30:57.637Z,20.00
2018-07-29T03:33:25.904Z,20.00
2018-07-29T03:35:54.218Z,20.00
2018-07-29T03:38:22.613Z,19.90
2018-07-29T03:40:50.928Z,19.90
2018-07-29T03:43:19.209Z,19.80
2018-07-29T03:45:47.682Z,19.70
2018-07-29T03:48:16.212Z,19.70
2018-07-29T03:50:44.480Z,19.70
2018-07-29T03:53:12.735Z,19.60
2018-07-29T03:55:41.017Z,19.60
2018-07-29T03:58:09.314Z,19.50
2018-07-29T04:00:37.896Z,19.60
2018-07-29T04:03:06.152Z,19.60
2018-07-29T04:05:34.422Z,19.70
2018-07-29T04:08:02.708Z,19.70
2018-07-29T04:10:31.138Z,19.80
2018-07-29T04:12:59.396Z,19.80
2018-07-29T04:15:27.657Z,19.80
2018-07-29T04:17:55.977Z,19.90
2018-07-29T04:20:24.277Z,19.90
2018-07-29T04:22:52.768Z,19.90
2018-07-29T04:25:21.025Z,19.90
2018-07-29T04:27:49.318Z,19.90
2018-07-29T04:30:17.609Z,19.90
2018-07-29T04:32:45.868Z,19.90
2018-07-29T04:35:14.132Z,19.90
2018-07-29T04:37:42.919Z,19.90
2018-07-29T04:40:11.353Z,19.90
2018-07-29T04:42:39.633Z,20.00
2018-07-29T04:45:07.908Z,20.00
2018-07-29T04:47:36.174Z,20.10
2018-07-29T04:50:04.973Z,20.10
2018-07-29T04:52:33.257Z,20.20
2018-07-29T04:55:01.540Z,20.30
2018-07-29T04:57:30.177Z,20.30
2018-07-29T04:59:58.428Z,20.30
2018-07-29T05:02:26.721Z,20.30
2018-07-29T05:04:55.086Z,20.40
2018-07-29T05:07:23.421Z,20.40
2018-07-29T05:09:51.728Z,20.40
2018-07-29T05:12:20.033Z,20.30
2018-07-29T05:14:48.304Z,20.20
2018-07-29T05:17:16.592Z,20.30
2018-07-29T05:19:44.876Z,20.30
2018-07-29T05:22:13.137Z,20.30
2018-07-29T05:24:41.461Z,20.30
2018-07-29T05:27:09.724Z,20.30
2018-07-29T05:29:37.991Z,20.30
2018-07-29T05:32:06.391Z,20.40
2018-07-29T05:34:34.698Z,20.40
2018-07-29T05:37:03.130Z,20.40
2018-07-29T05:39:31.413Z,20.50
2018-07-29T05:41:59.692Z,20.50
2018-07-29T05:44:27.972Z,20.50
2018-07-29T05:46:56.256Z,20.60
2018-07-29T05:49:24.558Z,20.60
2018-07-29T05:51:52.830Z,20.60
2018-07-29T05:54:21.150Z,20.60
2018-07-29T05:56:49.436Z,20.70
2018-07-29T05:59:17.751Z,20.70
2018-07-29T06:01:46.120Z,20.90
2018-07-29T06:04:14.437Z,21.00
2018-07-29T06:06:43.484Z,21.10
2018-07-29T06:09:11.772Z,21.20
2018-07-29T06:11:40.434Z,21.30
2018-07-29T06:14:08.938Z,21.50
2018-07-29T06:16:37.217Z,21.50
2018-07-29T06:19:05.584Z,21.60
2018-07-29T06:21:33.859Z,21.70
2018-07-29T06:24:02.129Z,21.70
2018-07-29T06:26:30.454Z,21.80
2018-07-29T06:28:58.745Z,21.90
2018-07-29T06:31:27.049Z,22.00
2018-07-29T06:33:55.317Z,22.10
2018-07-29T06:36:23.585Z,22.10
2018-07-29T06:38:51.848Z,22.10
2018-07-29T06:41:20.140Z,22.10
2018-07-29T06:43:48.565Z,22.10
2018-07-29T06:46:16.908Z,22.20
2018-07-29T06:48:45.168Z,22.40
2018-07-29T06:51:13.434Z,22.60
2018-07-29T06:53:41.772Z,23.00
2018-07-29T06:56:10.182Z,23.30
2018-07-29T06:58:38.483Z,23.50
2018-07-29T07:01:06.876Z,23.80
2018-07-29T07:03:35.156Z,23.70
2018-07-29T07:06:03.488Z,23.50
2018-07-29T07:08:31.862Z,23.50
2018-07-29T07:11:00.189Z,23.70
2018-07-29T07:13:28.709Z,23.90
2018-07-29T07:15:57.054Z,24.00
2018-07-29T07:18:25.602Z,24.00
2018-07-29T07:20:53.926Z,24.00
2018-07-29T07:23:22.193Z,24.10
2018-07-29T07:25:50.456Z,24.10
2018-07-29T07:28:18.733Z,24.00
2018-07-29T07:30:47.144Z,24.00
2018-07-29T07:33:15.557Z,24.00
2018-07-29T07:35:43.999Z,23.90
2018-07-29T07:38:12.285Z,23.70
2018-07-29T07:40:40.581Z,23.70
2018-07-29T07:43:08.852Z,23.80
2018-07-29T07:45:37.150Z,23.80
2018-07-29T07:48:05.517Z,23.90
2018-07-29T07:50:33.805Z,24.00
2018-07-29T07:53:02.112Z,24.10
2018-07-29T07:55:30.400Z,24.20
2018-07-29T07:57:58.731Z,24.20
2018-07-29T08:00:27.005Z,24.20
2018-07-29T08:02:55.273Z,24.30
2018-07-29T08:05:23.560Z,24.30
2018-07-29T08:07:51.829Z,24.40
2018-07-29T08:10:20.148Z,24.30
2018-07-29T08:12:48.473Z,24.20
2018-07-29T08:15:16.879Z,24.20
2018-07-29T08:17:45.174Z,24.30
2018-07-29T08:20:13.460Z,24.30
2018-07-29T08:22:41.736Z,24.50
2018-07-29T08:25:10.051Z,24.70
2018-07-29T08:27:38.345Z,24.70
2018-07-29T08:30:06.949Z,24.80
2018-07-29T08:32:35.225Z,24.90
2018-07-29T08:35:03.535Z,25.20
2018-07-29T08:37:31.814Z,25.40
2018-07-29T08:40:00.159Z,25.40
2018-07-29T08:42:28.547Z,25.40
2018-07-29T08:44:56.877Z,25.40
2018-07-29T08:47:25.123Z,25.50
2018-07-29T08:49:53.388Z,25.70
2018-07-29T08:52:21.745Z,25.70
2018-07-29T08:54:50.031Z,25.50
2018-07-29T08:57:18.327Z,25.50
2018-07-29T08:59:46.631Z,25.40
2018-07-29T09:02:14.956Z,25.60
2018-07-29T09:04:43.279Z,25.80
2018-07-29T09:07:11.585Z,25.90
2018-07-29T09:09:39.841Z,25.80
2018-07-29T09:12:08.387Z,25.90
2018-07-29T09:14:36.662Z,25.90
2018-07-29T09:17:04.925Z,25.90
2018-07-29T09:19:33.225Z,25.90
2018-07-29T09:22:01.486Z,25.90
2018-07-29T09:24:29.743Z,25.70
2018-07-29T09:26:58.041Z,25.40
2018-07-29T09:29:26.298Z,25.50
2018-07-29T09:31:54.577Z,25.60
2018-07-29T09:34:22.860Z,25.70
2018-07-29T09:36:51.964Z,25.80
2018-07-29T09:39:20.231Z,25.90
2018-07-29T09:41:48.522Z,26.00
2018-07-29T09:44:16.776Z,26.10
2018-07-29T09:46:45.041Z,26.10
2018-07-29T09:49:13.304Z,26.10
2018-07-29T09:51:41.585Z,26.10
2018-07-29T09:54:09.861Z,26.20
2018-07-29T09:56:38.151Z,26.20
2018-07-29T09:59:06.408Z,26.30
2018-07-29T10:01:34.710Z,26.40
2018-07-29T10:04:03.009Z,26.50
2018-07-29T10:06:31.300Z,26.60
2018-07-29T10:09:05.833Z,26.50
2018-07-29T10:11:34.102Z,26.30
2018-07-29T10:14:02.392Z,26.20
2018-07-29T10:16:30.689Z,26.20
2018-07-29T10:18:58.950Z,26.20
2018-07-29T10:21:27.232Z,26.30
2018-07-29T10:23:55.514Z,26.50
2018-07-29T10:26:23.800Z,26.70
2018-07-29T10:28:52.164Z,26.80
2018-07-29T10:31:20.484Z,26.80
2018-07-29T10:33:48.763Z,26.90
2018-07-29T10:36:17.357Z,26.90
2018-07-29T10:38:45.640Z,27.00
2018-07-29T10:41:13.917Z,26.80
2018-07-29T10:43:42.189Z,26.80
2018-07-29T10:46:10.539Z,26.70
2018-07-29T10:48:38.801Z,26.80
2018-07-29T10:51:07.329Z,26.80
2018-07-29T10:53:35.614Z,26.80
2018-07-29T10:56:03.901Z,26.90
2018-07-29T10:58:33.079Z,27.00
2018-07-29T11:01:01.390Z,26.80
2018-07-29T11:03:29.641Z,26.80
2018-07-29T11:05:57.897Z,26.80
2018-07-29T11:08:26.192Z,26.80
2018-07-29T11:10:54.466Z,26.70
2018-07-29T11:13:22.717Z,26.80
2018-07-29T11:15:51.001Z,27.00
2018-07-29T11:18:19.272Z,26.90
2018-07-29T11:20:47.565Z,26.90
2018-07-29T11:23:15.826Z,26.80
2018-07-29T11:25:44.105Z,26.60
2018-07-29T11:28:12.693Z,26.60
2018-07-29T11:30:41.058Z,26.40
2018-07-29T11:33:09.537Z,26.40
2018-07-29T11:35:38.172Z,26.50
2018-07-29T11:38:06.480Z,26.60
2018-07-29T11:40:34.768Z,26.60
2018-07-29T11:43:03.036Z,26.60
2018-07-29T11:45:31.362Z,26.70
2018-07-29T11:47:59.627Z,26.70
2018-07-29T11:50:27.915Z,26.80
2018-07-29T11:52:56.190Z,26.90
2018-07-29T11:55:24.468Z,27.10
2018-07-29T11:57:52.802Z,27.10
2018-07-29T12:00:21.046Z,26.90
2018-07-29T12:02:49.404Z,27.00
2018-07-29T12:05:17.656Z,26.90
2018-07-29T12:07:45.920Z,26.90
2018-07-29T12:10:14.257Z,27.00
2018-07-29T12:12:42.576Z,27.00
2018-07-29T12:15:10.849Z,27.10
2018-07-29T12:17:39.143Z,27.40
2018-07-29T12:20:10.417Z,27.50
2018-07-29T12:22:38.726Z,27.70
2018-07-29T12:25:07.044Z,27.60
2018-07-29T12:27:35.329Z,27.70
2018-07-29T12:30:03.662Z,27.70
2018-07-29T12:32:31.921Z,27.40
2018-07-29T12:35:00.206Z,27.20
2018-07-29T12:37:28.477Z,27.30
2018-07-29T12:39:56.748Z,27.50
2018-07-29T12:42:25.021Z,27.70
2018-07-29T12:44:53.280Z,28.00
2018-07-29T12:47:21.541Z,28.00
2018-07-29T12:49:49.825Z,28.10
2018-07-29T12:52:18.133Z,27.90
2018-07-29T12:54:46.409Z,27.50
2018-07-29T12:57:14.685Z,27.60
2018-07-29T12:59:42.959Z,27.50
2018-07-29T13:02:11.277Z,27.50
2018-07-29T13:04:39.536Z,27.70
2018-07-29T13:07:07.812Z,27.80
2018-07-29T13:09:36.120Z,27.90
2018-07-29T13:12:04.629Z,27.90
2018-07-29T13:14:33.178Z,27.80
2018-07-29T13:17:01.513Z,27.90
2018-07-29T13:19:29.922Z,28.10
2018-07-29T13:21:58.244Z,28.30
2018-07-29T13:24:26.512Z,28.30
2018-07-29T13:26:54.837Z,28.20
2018-07-29T13:29:23.104Z,28.40
2018-07-29T13:31:51.448Z,28.40
2018-07-29T13:34:19.759Z,28.40
2018-07-29T13:36:48.204Z,28.20
2018-07-29T13:39:16.482Z,28.20
2018-07-29T13:41:44.850Z,28.20
2018-07-29T13:44:13.226Z,28.20
2018-07-29T13:46:41.635Z,28.40
2018-07-29T13:49:09.965Z,28.50
2018-07-29T13:51:38.224Z,28.60
2018-07-29T13:54:06.578Z,28.70
2018-07-29T13:56:34.862Z,28.60
2018-07-29T13:59:04.350Z,28.70
2018-07-29T14:01:32.882Z,28.70
2018-07-29T14:04:01.150Z,28.90
2018-07-29T14:06:29.506Z,29.00
2018-07-29T14:08:57.780Z,29.00
2018-07-29T14:11:26.329Z,29.10
2018-07-29T14:13:54.685Z,29.00
2018-07-29T14:16:23.016Z,28.80
2018-07-29T14:18:51.328Z,28.90
2018-07-29T14:21:19.807Z,28.70
2018-07-29T14:23:48.360Z,28.90
2018-07-29T14:26:16.624Z,29.10
2018-07-29T14:28:44.968Z,29.20
2018-07-29T14:31:13.282Z,29.30
2018-07-29T14:33:41.574Z,29.30
2018-07-29T14:36:09.884Z,29.40
2018-07-29T14:38:38.222Z,29.40
2018-07-29T14:41:06.589Z,29.40
2018-07-29T14:43:34.876Z,29.30
2018-07-29T14:46:03.182Z,29.40
2018-07-29T14:48:31.595Z,29.30
2018-07-29T14:50:59.930Z,29.30
2018-07-29T14:53:28.544Z,29.30
2018-07-29T14:55:56.906Z,29.40
2018-07-29T14:58:25.269Z,29.50
2018-07-29T15:00:53.688Z,29.70
2018-07-29T15:03:22.050Z,29.70
2018-07-29T15:05:50.392Z,29.80
2018-07-29T15:08:21.812Z,29.90
2018-07-29T15:10:51.256Z,30.00
2018-07-29T15:13:19.512Z,30.00
2018-07-29T15:15:47.793Z,29.90
2018-07-29T15:18:16.437Z,29.90
2018-07-29T15:20:44.701Z,29.90
2018-07-29T15:23:13.076Z,29.80
2018-07-29T15:25:41.415Z,29.60
2018-07-29T15:28:10.179Z,29.70
2018-07-29T15:30:38.797Z,29.50
2018-07-29T15:33:07.037Z,29.40
2018-07-29T15:35:35.392Z,29.40
2018-07-29T15:38:03.945Z,29.40
2018-07-29T15:40:32.363Z,29.40
2018-07-29T15:43:00.700Z,29.50
2018-07-29T15:45:28.968Z,29.40
2018-07-29T15:47:57.249Z,29.50
2018-07-29T15:50:25.668Z,29.80
2018-07-29T15:52:54.043Z,29.70
2018-07-29T15:55:22.331Z,29.90
2018-07-29T15:57:50.596Z,30.10
2018-07-29T16:00:18.896Z,30.90
2018-07-29T16:02:47.182Z,32.20
2018-07-29T16:05:15.510Z,33.30
2018-07-29T16:07:43.756Z,34.10
2018-07-29T16:10:12.713Z,35.30
2018-07-29T16:12:40.979Z,35.70
2018-07-29T16:15:10.149Z,36.10
2018-07-29T16:17:38.703Z,36.50
2018-07-29T16:20:06.968Z,36.60
2018-07-29T16:22:35.297Z,36.20
2018-07-29T16:25:03.770Z,35.90
2018-07-29T16:27:32.016Z,36.20
2018-07-29T16:30:00.459Z,36.50
2018-07-29T16:32:28.728Z,36.80
2018-07-29T16:34:56.996Z,36.70
2018-07-29T16:37:25.439Z,36.60
2018-07-29T16:39:53.742Z,36.80
2018-07-29T16:42:22.052Z,37.10
2018-07-29T16:44:50.292Z,35.60
2018-07-29T16:47:18.908Z,35.70
2018-07-29T16:49:47.193Z,35.90
2018-07-29T16:52:15.488Z,35.10
2018-07-29T16:54:44.096Z,34.60
2018-07-29T16:57:12.465Z,34.00
2018-07-29T16:59:40.736Z,33.30
2018-07-29T17:02:09.023Z,33.60
2018-07-29T17:04:37.281Z,33.90
2018-07-29T17:07:05.621Z,34.40
2018-07-29T17:09:33.980Z,35.10
2018-07-29T17:12:02.637Z,35.20
2018-07-29T17:14:31.045Z,34.70
2018-07-29T17:16:59.341Z,35.40
2018-07-29T17:19:27.651Z,35.40
2018-07-29T17:21:55.916Z,35.70
2018-07-29T17:24:24.188Z,35.40
2018-07-29T17:26:52.461Z,35.50
2018-07-29T17:29:20.726Z,35.60
2018-07-29T17:31:48.989Z,35.30
2018-07-29T17:34:17.251Z,35.30
2018-07-29T17:36:45.544Z,34.90
2018-07-29T17:39:13.824Z,35.10
2018-07-29T17:41:42.204Z,34.70
2018-07-29T17:44:10.489Z,34.50
2018-07-29T17:46:38.988Z,34.20
2018-07-29T17:49:07.293Z,34.10
2018-07-29T17:51:35.729Z,34.40
2018-07-29T17:54:04.046Z,34.50
2018-07-29T17:56:32.347Z,34.50
2018-07-29T17:59:00.631Z,34.20
2018-07-29T18:01:30.900Z,34.20
2018-07-29T18:04:00.948Z,34.40
2018-07-29T18:06:29.260Z,34.60
2018-07-29T18:08:57.547Z,34.60
2018-07-29T18:11:25.809Z,34.70
2018-07-29T18:13:54.095Z,34.50
2018-07-29T18:16:22.340Z,34.20
2018-07-29T18:18:50.608Z,33.60
2018-07-29T18:21:18.900Z,32.60
2018-07-29T18:23:47.955Z,31.70
2018-07-29T18:26:16.421Z,30.90
2018-07-29T18:28:44.712Z,30.30
2018-07-29T18:31:13.017Z,29.80
2018-07-29T18:33:41.301Z,29.40
2018-07-29T18:36:09.600Z,29.00
2018-07-29T18:38:37.865Z,28.80
2018-07-29T18:41:06.266Z,28.50
2018-07-29T18:43:34.468Z,28.40
2018-07-29T18:46:02.940Z,28.20
2018-07-29T18:48:31.206Z,28.00
2018-07-29T18:50:59.461Z,27.90
2018-07-29T18:53:27.726Z,27.70
2018-07-29T18:55:56.021Z,27.50
2018-07-29T18:58:24.297Z,27.30
2018-07-29T19:00:52.605Z,27.10
2018-07-29T19:03:20.858Z,27.00
2018-07-29T19:05:49.112Z,26.70
2018-07-29T19:08:17.493Z,26.50
2018-07-29T19:10:45.762Z,26.30
2018-07-29T19:13:14.033Z,26.20
2018-07-29T19:15:42.290Z,26.00
2018-07-29T19:18:10.594Z,25.90
2018-07-29T19:20:38.840Z,25.80
2018-07-29T19:23:07.269Z,25.70
2018-07-29T19:25:35.512Z,25.50
2018-07-29T19:28:03.834Z,25.40
2018-07-29T19:30:32.101Z,25.30
2018-07-29T19:33:00.360Z,25.20
2018-07-29T19:35:28.705Z,25.10
2018-07-29T19:37:56.969Z,24.90
2018-07-29T19:40:25.292Z,24.90
2018-07-29T19:42:53.633Z,24.80
2018-07-29T19:45:21.937Z,24.70
2018-07-29T19:47:50.212Z,24.70
2018-07-29T19:50:18.468Z,24.60
2018-07-29T19:52:46.753Z,24.50
2018-07-29T19:55:15.034Z,24.50
2018-07-29T19:57:43.305Z,24.40
2018-07-29T20:00:11.572Z,24.30
2018-07-29T20:02:40.389Z,24.20
2018-07-29T20:05:09.013Z,24.10
2018-07-29T20:07:37.398Z,24.00
2018-07-29T20:10:05.732Z,24.00
2018-07-29T20:12:34.094Z,23.90
2018-07-29T20:15:02.343Z,23.80
2018-07-29T20:17:30.601Z,23.70
2018-07-29T20:19:58.880Z,23.70
2018-07-29T20:22:27.169Z,23.70
2018-07-29T20:24:55.436Z,23.60
2018-07-29T20:27:23.771Z,23.60
2018-07-29T20:29:52.064Z,23.50
2018-07-29T20:32:20.333Z,23.50
2018-07-29T20:34:48.605Z,23.40
2018-07-29T20:37:16.884Z,23.30
2018-07-29T20:39:45.438Z,23.30
2018-07-29T20:42:13.660Z,23.20
2018-07-29T20:44:41.936Z,23.20
2018-07-29T20:47:10.193Z,23.20
2018-07-29T20:49:38.460Z,23.20
2018-07-29T20:52:06.937Z,23.10
2018-07-29T20:54:35.199Z,23.00
2018-07-29T20:57:03.481Z,22.90
2018-07-29T20:59:31.767Z,22.90
2018-07-29T21:02:00.057Z,22.80
2018-07-29T21:04:28.324Z,22.80
2018-07-29T21:06:56.604Z,22.70
2018-07-29T21:12:21.168Z,22.60
2018-07-29T21:14:49.426Z,22.60
2018-07-29T21:17:17.706Z,22.50
2018-07-29T21:19:46.020Z,22.50
2018-07-29T21:22:14.277Z,22.40
2018-07-29T21:24:42.545Z,22.40
2018-07-29T21:27:10.833Z,22.40
2018-07-29T21:29:39.273Z,22.30
2018-07-29T21:32:07.686Z,22.30
2018-07-29T21:34:36.009Z,22.30
2018-07-29T21:37:04.340Z,22.30
2018-07-29T21:39:32.608Z,22.20
2018-07-29T21:42:00.880Z,22.20
2018-07-29T21:44:29.191Z,22.10
2018-07-29T21:46:57.480Z,22.10
2018-07-29T21:49:25.782Z,22.10
2018-07-29T21:51:54.168Z,22.00
2018-07-29T21:54:22.438Z,22.00
2018-07-29T21:56:50.720Z,22.00
2018-07-29T21:59:18.988Z,22.00
2018-07-29T22:01:47.281Z,21.90
2018-07-29T22:04:15.582Z,21.90
2018-07-29T22:06:43.851Z,21.80
2018-07-29T22:09:12.628Z,21.70
2018-07-29T22:11:41.696Z,21.60
2018-07-29T22:14:10.221Z,21.50
2018-07-29T22:16:38.490Z,21.50
2018-07-29T22:19:06.905Z,21.50
2018-07-29T22:21:35.182Z,21.40
2018-07-29T22:24:03.489Z,21.40
2018-07-29T22:26:37.045Z,21.40
2018-07-29T22:29:10.749Z,21.40
2018-07-29T22:31:44.385Z,21.50
2018-07-29T22:34:12.772Z,21.40
2018-07-29T22:36:41.599Z,21.30
2018-07-29T22:39:09.884Z,21.20
2018-07-29T22:41:38.150Z,21.20
2018-07-29T22:44:06.417Z,21.20
2018-07-29T22:46:34.678Z,21.10
2018-07-29T22:49:02.947Z,21.10
2018-07-29T22:51:31.204Z,21.10
2018-07-29T22:53:59.501Z,21.10
2018-07-29T22:56:27.769Z,21.10
2018-07-29T22:58:56.079Z,21.10
2018-07-29T23:01:24.397Z,21.10
2018-07-29T23:03:52.742Z,21.10
2018-07-29T23:06:21.012Z,21.10
2018-07-29T23:08:49.358Z,21.00
2018-07-29T23:11:17.600Z,21.00
2018-07-29T23:13:45.877Z,20.90
2018-07-29T23:16:14.296Z,20.90
2018-07-29T23:18:42.568Z,20.80
2018-07-29T23:21:10.833Z,20.80
2018-07-29T23:23:39.140Z,20.80
2018-07-29T23:26:07.461Z,20.70
2018-07-29T23:28:35.757Z,20.70
2018-07-29T23:31:04.133Z,20.70
2018-07-29T23:33:32.385Z,20.70
2018-07-29T23:36:00.680Z,20.70
2018-07-29T23:38:28.986Z,20.60
2018-07-29T23:40:57.292Z,20.60
2018-07-29T23:43:25.588Z,20.50
2018-07-29T23:45:53.919Z,20.40
2018-07-29T23:48:22.188Z,20.40
2018-07-29T23:50:50.494Z,20.30
2018-07-29T23:53:18.806Z,20.30
2018-07-29T23:55:47.159Z,20.20
2018-07-29T23:58:15.491Z,20.20
